Time;durP1;ratioP1;P1;durP2;ratioP2;P2;SDS_P1;SDS_P2;PMS_P1;PMS_P2;Temp;Humidity;BMP_temperature;BMP_pressure;BME280_temperature;BME280_humidity;BME280_pressure;Samples;Min_cycle;Max_cycle;Signal;HPM_P1;HPM_P2
2023/06/15 00:01:19;;;;;;;9.13;3.83;;;;;;;17.43;100.00;98178.50;5103820;28;20051;-93
2023/06/15 00:03:45;;;;;;;9.00;3.88;;;;;;;17.65;100.00;98210.22;5101930;28;20090;-94
2023/06/15 00:06:12;;;;;;;10.18;3.70;;;;;;;17.51;100.00;98175.31;5099992;28;20040;-93
2023/06/15 00:08:38;;;;;;;9.02;4.00;;;;;;;17.56;100.00;98184.81;5101126;28;20058;-95
2023/06/15 00:11:04;;;;;;;6.68;3.88;;;;;;;17.56;100.00;98175.88;5104487;28;20485;-90
2023/06/15 00:13:30;;;;;;;6.30;4.00;;;;;;;17.76;100.00;98204.16;5101107;28;20054;-92
2023/06/15 00:15:57;;;;;;;6.07;3.58;;;;;;;17.57;100.00;98178.47;5103686;28;20043;-92
2023/06/15 00:18:23;;;;;;;8.38;3.80;;;;;;;17.66;100.00;98202.06;5105234;28;20044;-94
2023/06/15 00:20:49;;;;;;;8.05;4.05;;;;;;;17.57;100.00;98183.00;5104500;28;20039;-90
2023/06/15 00:23:17;;;;;;;9.43;4.20;;;;;;;17.43;100.00;98178.50;5103290;28;20042;-92
2023/06/15 00:25:43;;;;;;;9.02;4.25;;;;;;;17.51;100.00;98199.53;5101442;28;20130;-94
2023/06/15 00:28:09;;;;;;;7.78;4.82;;;;;;;17.40;100.00;98211.81;5102784;28;20065;-93
2023/06/15 00:30:35;;;;;;;17.58;5.43;;;;;;;17.24;100.00;98209.25;5096450;28;20118;-93
2023/06/15 00:33:01;;;;;;;8.98;4.75;;;;;;;17.01;100.00;98183.81;5102283;28;20039;-92
2023/06/15 00:35:27;;;;;;;10.93;5.18;;;;;;;16.97;100.00;98176.91;5102048;28;20077;-91
2023/06/15 00:37:52;;;;;;;8.93;4.55;;;;;;;16.98;100.00;98188.50;5094334;28;20043;-93
2023/06/15 00:40:20;;;;;;;12.07;5.00;;;;;;;17.06;100.00;98196.97;5079210;28;20040;-93
2023/06/15 00:42:46;;;;;;;8.25;4.47;;;;;;;17.16;100.00;98203.50;5101901;28;20072;-93
2023/06/15 00:45:12;;;;;;;10.60;5.68;;;;;;;17.30;100.00;98217.88;5085277;28;20044;-94
2023/06/15 00:47:39;;;;;;;8.82;4.43;;;;;;;17.22;100.00;98192.38;5083246;28;20050;-92
2023/06/15 00:50:09;;;;;;;10.90;4.78;;;;;;;17.32;100.00;98200.69;5084524;28;20107;-92
2023/06/15 00:52:36;;;;;;;7.78;4.22;;;;;;;17.18;100.00;98179.22;5074985;28;20413;-92
2023/06/15 00:55:03;;;;;;;11.95;4.50;;;;;;;17.18;100.00;98179.22;5083838;28;20043;-93
2023/06/15 00:57:32;;;;;;;8.50;4.22;;;;;;;17.31;100.00;98190.91;5101556;28;20048;-93
2023/06/15 00:59:59;;;;;;;10.63;4.38;;;;;;;17.16;100.00;98181.16;5085259;28;20032;-93
2023/06/15 01:02:25;;;;;;;8.80;4.95;;;;;;;17.13;100.00;98186.69;5084734;28;20515;-93
2023/06/15 01:04:51;;;;;;;8.60;4.88;;;;;;;17.07;100.00;98170.94;5083336;28;20048;-92
2023/06/15 01:07:20;;;;;;;9.18;4.65;;;;;;;17.14;100.00;98183.06;5087566;28;20047;-94
2023/06/15 01:09:48;;;;;;;8.40;4.72;;;;;;;17.06;100.00;98172.78;5087008;28;20040;-94
2023/06/15 01:12:17;;;;;;;8.55;4.55;;;;;;;17.23;100.00;98198.59;5090619;28;20082;-93
2023/06/15 01:14:45;;;;;;;10.90;4.72;;;;;;;17.08;100.00;98167.31;5087224;28;20040;-93
2023/06/15 01:17:13;;;;;;;7.85;4.70;;;;;;;17.09;100.00;98175.28;5092023;28;20420;-92
2023/06/15 01:19:54;;;;;;;14.50;5.03;;;;;;;17.07;100.00;98163.78;5090528;28;20366;-93
2023/06/15 01:22:34;;;;;;;8.48;4.90;;;;;;;17.22;100.00;98195.03;5087470;28;20116;-94
2023/06/15 01:25:09;;;;;;;9.65;5.25;;;;;;;17.01;100.00;98162.34;5094880;28;20036;-93
2023/06/15 01:27:41;;;;;;;11.60;5.13;;;;;;;16.94;100.00;98166.38;5112374;28;20066;-93
2023/06/15 01:30:09;;;;;;;10.15;4.75;;;;;;;16.95;100.00;98159.16;5094451;28;20036;-93
2023/06/15 01:32:35;;;;;;;10.20;5.05;;;;;;;17.17;100.00;98180.16;5090184;28;20036;-93
2023/06/15 01:35:01;;;;;;;11.45;5.07;;;;;;;17.31;100.00;98190.06;5093829;28;20044;-93
2023/06/15 01:37:31;;;;;;;9.27;5.32;;;;;;;17.32;100.00;98187.25;5087498;28;20054;-92
2023/06/15 01:39:57;;;;;;;11.68;4.78;;;;;;;17.31;100.00;98177.47;5095564;28;20032;-93
2023/06/15 01:42:23;;;;;;;9.93;5.05;;;;;;;17.28;100.00;98169.59;5090733;28;20048;-95
2023/06/15 01:44:53;;;;;;;10.63;5.00;;;;;;;17.18;100.00;98144.28;5085969;28;20046;-94
2023/06/15 01:47:20;;;;;;;7.40;4.57;;;;;;;17.25;100.00;98175.19;5083097;28;20044;-90
2023/06/15 01:49:46;;;;;;;8.88;5.00;;;;;;;17.07;100.00;98144.09;5089054;28;20039;-91
2023/06/15 01:52:12;;;;;;;8.90;4.45;;;;;;;17.16;100.00;98157.81;5087009;28;20036;-93
2023/06/15 01:54:38;;;;;;;8.45;4.75;;;;;;;17.28;100.00;98172.28;5078908;28;20463;-93
2023/06/15 01:57:06;;;;;;;8.57;5.10;;;;;;;17.39;100.00;98188.59;5087467;28;20044;-93
2023/06/15 01:59:32;;;;;;;10.35;4.60;;;;;;;17.24;100.00;98151.97;5097649;28;20484;-93
2023/06/15 02:01:59;;;;;;;11.45;5.38;;;;;;;17.30;100.00;98167.66;5086653;28;20039;-93
2023/06/15 02:04:25;;;;;;;7.88;4.43;;;;;;;17.15;100.00;98139.09;5091671;28;20040;-91
2023/06/15 02:06:51;;;;;;;9.88;4.75;;;;;;;17.29;100.00;98155.22;5088162;28;20093;-91
2023/06/15 02:09:17;;;;;;;13.77;4.70;;;;;;;17.20;100.00;98139.69;5102465;28;20103;-92
2023/06/15 02:11:44;;;;;;;11.48;5.18;;;;;;;17.24;100.00;98141.22;5088980;28;20051;-94
2023/06/15 02:14:10;;;;;;;8.23;4.63;;;;;;;17.26;100.00;98139.25;5085164;28;20040;-94
2023/06/15 02:16:36;;;;;;;10.40;4.80;;;;;;;17.35;100.00;98154.81;5079910;28;20073;-92
2023/06/15 02:19:04;;;;;;;8.73;3.92;;;;;;;17.43;100.00;98165.06;5089148;28;20052;-93
2023/06/15 02:21:30;;;;;;;8.55;4.30;;;;;;;17.46;100.00;98159.50;5085187;28;20059;-93
2023/06/15 02:23:56;;;;;;;9.40;4.72;;;;;;;17.31;100.00;98131.78;5088674;28;20040;-93
2023/06/15 02:26:22;;;;;;;12.23;4.63;;;;;;;17.32;100.00;98130.81;5084903;28;20409;-92
2023/06/15 02:28:48;;;;;;;8.30;4.93;;;;;;;17.45;100.00;98157.75;5087439;28;20480;-92
2023/06/15 02:31:14;;;;;;;10.18;4.40;;;;;;;17.51;100.00;98160.06;5087889;28;20451;-94
2023/06/15 02:33:40;;;;;;;7.72;4.53;;;;;;;17.28;100.00;98131.97;5089163;28;20047;-93
2023/06/15 02:36:08;;;;;;;9.63;5.70;;;;;;;17.36;100.00;98131.50;5085787;28;20040;-95
2023/06/15 02:38:37;;;;;;;8.05;4.40;;;;;;;17.34;100.00;98136.09;5092832;28;20052;-92
2023/06/15 02:41:03;;;;;;;9.93;4.82;;;;;;;17.59;100.00;98162.25;5090725;28;20062;-94
2023/06/15 02:43:28;;;;;;;9.32;4.57;;;;;;;17.39;100.00;98134.84;5085849;28;20048;-94
2023/06/15 02:45:54;;;;;;;9.73;4.20;;;;;;;17.38;100.00;98135.78;5092236;28;20042;-94
2023/06/15 02:48:20;;;;;;;8.55;4.40;;;;;;;17.31;100.00;98131.78;5085971;28;20047;-93
2023/06/15 02:50:46;;;;;;;7.28;4.22;;;;;;;17.39;100.00;98132.16;5090587;28;20048;-95
2023/06/15 02:53:14;;;;;;;11.68;4.50;;;;;;;17.42;100.00;98150.75;5097488;28;20039;-93
2023/06/15 02:55:41;;;;;;;8.43;5.13;;;;;;;17.38;100.00;98148.38;5083428;28;20040;-95
2023/06/15 02:58:07;;;;;;;9.13;4.88;;;;;;;17.29;100.00;98139.09;5085033;28;20040;-94
2023/06/15 03:00:36;;;;;;;9.75;4.70;;;;;;;17.28;100.00;98147.25;5087589;28;20020;-95
2023/06/15 03:03:02;;;;;;;9.35;4.72;;;;;;;17.26;100.00;98152.69;5096272;28;20040;-93
2023/06/15 03:05:28;;;;;;;10.65;5.20;;;;;;;17.29;100.00;98147.16;5101160;28;20043;-93
2023/06/15 03:07:54;;;;;;;10.30;5.25;;;;;;;17.39;100.00;98172.47;5093153;28;20413;-93
2023/06/15 03:10:21;;;;;;;9.65;4.90;;;;;;;17.43;100.00;98173.97;5094458;28;20036;-93
2023/06/15 03:12:47;;;;;;;9.48;5.55;;;;;;;17.29;100.00;98157.91;5087491;28;20489;-93
2023/06/15 03:15:14;;;;;;;8.82;4.90;;;;;;;17.29;100.00;98148.97;5095291;28;20035;-93
2023/06/15 03:17:41;;;;;;;9.20;5.22;;;;;;;17.50;100.00;98193.28;5085476;28;20040;-92
2023/06/15 03:20:10;;;;;;;9.95;4.80;;;;;;;17.35;100.00;98157.50;5087616;28;20085;-94
2023/06/15 03:22:37;;;;;;;8.20;4.65;;;;;;;17.41;100.00;98159.81;5098795;28;20093;-95
2023/06/15 03:25:03;;;;;;;11.27;5.22;;;;;;;17.53;100.00;98176.09;5093149;28;20043;-94
2023/06/15 03:27:32;;;;;;;8.63;5.13;;;;;;;17.54;100.00;98170.59;5085295;28;20059;-92
2023/06/15 03:30:01;;;;;;;10.07;5.22;;;;;;;17.52;100.00;98161.81;5087986;28;20042;-94
2023/06/15 03:32:28;;;;;;;9.38;4.43;;;;;;;17.68;100.00;98187.69;5092943;28;20565;-93
2023/06/15 03:34:57;;;;;;;7.93;4.55;;;;;;;17.54;100.00;98165.22;5089452;28;20047;-94
2023/06/15 03:37:23;;;;;;;7.30;4.90;;;;;;;17.68;100.00;98201.97;5094871;28;20074;-95
2023/06/15 03:39:49;;;;;;;11.73;5.25;;;;;;;17.55;100.00;98179.53;5105051;28;20054;-95
2023/06/15 03:42:15;;;;;;;7.78;4.45;;;;;;;17.56;100.00;98178.56;5105400;28;20052;-93
2023/06/15 03:44:43;;;;;;;12.02;4.97;;;;;;;17.53;100.00;98176.94;5104737;28;20062;-93
2023/06/15 03:47:09;;;;;;;8.63;4.90;;;;;;;17.48;100.00;98176.41;5105251;28;20040;-93
2023/06/15 03:49:35;;;;;;;10.30;5.05;;;;;;;17.57;100.00;98188.38;5103221;28;20039;-93
2023/06/15 03:52:01;;;;;;;8.43;4.72;;;;;;;17.47;100.00;98176.50;5104387;28;20081;-92
2023/06/15 03:54:27;;;;;;;7.65;4.80;;;;;;;17.56;100.00;98200.94;5104187;28;20044;-93
2023/06/15 03:56:53;;;;;;;9.13;5.07;;;;;;;17.49;100.00;98191.53;5105326;28;20131;-95
2023/06/15 03:59:19;;;;;;;7.53;4.35;;;;;;;17.64;100.00;98217.44;5104724;28;20066;-93
2023/06/15 04:01:46;;;;;;;9.93;4.85;;;;;;;17.49;100.00;98186.16;5106581;28;20110;-92
2023/06/15 04:04:14;;;;;;;13.18;5.38;;;;;;;17.52;100.00;98201.22;5102899;28;20046;-93
2023/06/15 04:06:45;;;;;;;9.00;5.55;;;;;;;17.41;100.00;98188.47;5104155;28;20040;-92
2023/06/15 04:09:12;;;;;;;8.68;5.22;;;;;;;17.44;100.00;98202.59;5104052;27;20044;-92
2023/06/15 04:11:37;;;;;;;9.00;4.88;;;;;;;17.49;100.00;98210.38;5120165;28;20063;-91
2023/06/15 04:14:03;;;;;;;9.98;5.18;;;;;;;17.41;100.00;98191.16;5104219;28;20036;-96
2023/06/15 04:16:29;;;;;;;11.95;6.25;;;;;;;17.60;100.00;98225.81;5103380;28;20063;-92
2023/06/15 04:18:57;;;;;;;9.13;5.50;;;;;;;17.54;100.00;98218.97;5106538;28;20048;-94
2023/06/15 04:21:23;;;;;;;14.30;5.53;;;;;;;17.41;100.00;98197.44;5104765;28;20074;-94
2023/06/15 04:23:49;;;;;;;9.57;5.85;;;;;;;17.49;100.00;98202.31;5105089;28;20024;-94
2023/06/15 04:26:15;;;;;;;11.70;5.97;;;;;;;17.37;100.00;98182.47;5103634;28;20036;-93
2023/06/15 04:28:45;;;;;;;12.15;6.13;;;;;;;17.42;100.00;98195.59;5104477;28;20047;-93
2023/06/15 04:31:14;;;;;;;11.30;6.28;;;;;;;17.48;100.00;98207.75;5104439;28;20063;-94
2023/06/15 04:33:42;;;;;;;14.02;6.15;;;;;;;17.42;100.00;98201.84;5104391;28;20039;-93
2023/06/15 04:36:13;;;;;;;11.45;6.43;;;;;;;17.39;100.00;98209.22;5099205;28;20035;-91
2023/06/15 04:38:46;;;;;;;9.93;5.90;;;;;;;17.40;100.00;98198.38;5091204;28;20044;-93
2023/06/15 04:41:12;;;;;;;12.38;6.60;;;;;;;17.37;100.00;98193.22;5100200;28;20043;-93
2023/06/15 04:43:38;;;;;;;11.63;6.10;;;;;;;17.47;100.00;98200.69;5102670;28;20065;-95
2023/06/15 04:46:04;;;;;;;16.73;6.63;;;;;;;17.48;100.00;98195.22;5137419;27;20039;-92
2023/06/15 04:48:32;;;;;;;12.77;7.25;;;;;;;17.63;100.00;98202.28;5104530;28;20036;-92
2023/06/15 04:50:59;;;;;;;13.82;6.80;;;;;;;17.53;100.00;98190.38;5104367;28;20122;-93
2023/06/15 04:53:26;;;;;;;10.93;6.15;;;;;;;17.50;100.00;98176.28;5104992;28;20060;-92
2023/06/15 04:55:53;;;;;;;13.55;6.38;;;;;;;17.53;100.00;98189.53;5102381;28;20039;-92
2023/06/15 04:58:19;;;;;;;11.45;6.07;;;;;;;17.57;100.00;98177.63;5103154;28;20040;-93
2023/06/15 05:00:45;;;;;;;12.23;6.53;;;;;;;17.53;100.00;98195.78;5100187;28;20115;-92
2023/06/15 05:03:11;;;;;;;9.55;6.68;;;;;;;17.54;100.00;98197.47;5102137;28;20094;-92
2023/06/15 05:05:37;;;;;;;10.60;6.25;;;;;;;17.59;100.00;98194.53;5104023;28;20040;-94
2023/06/15 05:08:04;;;;;;;13.30;6.18;;;;;;;17.75;100.00;98222.13;5103169;28;20039;-92
2023/06/15 05:10:31;;;;;;;10.65;6.80;;;;;;;17.70;100.00;98213.50;5102364;28;20042;-92
2023/06/15 05:12:58;;;;;;;10.10;6.65;;;;;;;17.88;100.00;98234.81;5120522;28;20044;-92
2023/06/15 05:15:23;;;;;;;12.35;7.10;;;;;;;17.72;100.00;98232.19;5099994;28;20044;-92
2023/06/15 05:17:49;;;;;;;10.57;6.88;;;;;;;17.69;100.00;98238.66;5101023;28;20047;-93
2023/06/15 05:20:15;;;;;;;13.80;7.05;;;;;;;17.72;100.00;98238.47;5102834;28;20032;-95
2023/06/15 05:22:41;;;;;;;12.65;6.90;;;;;;;17.75;100.00;98232.03;5102228;28;20051;-93
2023/06/15 05:25:08;;;;;;;11.52;6.55;;;;;;;17.70;100.00;98224.25;5108129;28;20027;-94
2023/06/15 05:27:36;;;;;;;16.95;7.68;;;;;;;17.78;100.00;98219.25;5104680;28;20062;-93
2023/06/15 05:30:04;;;;;;;12.52;6.53;;;;;;;17.84;100.00;98232.31;5099981;28;20044;-94
2023/06/15 05:32:30;;;;;;;10.25;6.38;;;;;;;17.93;100.00;98236.22;5103712;28;20519;-96
2023/06/15 05:34:56;;;;;;;11.40;6.38;;;;;;;18.00;100.00;98228.59;5102792;28;20078;-93
2023/06/15 05:37:22;;;;;;;12.77;6.30;;;;;;;18.08;100.00;98233.50;5103248;28;20052;-93
2023/06/15 05:39:48;;;;;;;12.80;7.13;;;;;;;17.99;100.00;98245.72;5102595;28;20051;-95
2023/06/15 05:42:14;;;;;;;11.30;6.65;;;;;;;18.22;100.00;98266.59;5102591;28;20043;-94
2023/06/15 05:44:41;;;;;;;14.93;7.05;;;;;;;18.14;100.00;98231.25;5118702;28;20052;-93
2023/06/15 05:47:07;;;;;;;13.02;6.97;;;;;;;18.28;100.00;98246.47;5102262;28;20050;-93
2023/06/15 05:49:33;;;;;;;15.18;6.70;;;;;;;18.46;100.00;98265.94;5102977;28;20044;-91
2023/06/15 05:51:59;;;;;;;10.95;6.38;;;;;;;18.51;100.00;98261.09;5098802;28;20047;-93
2023/06/15 05:54:25;;;;;;;9.13;6.38;;;;;;;18.48;100.00;98270.25;5101121;28;20138;-94
2023/06/15 05:56:51;;;;;;;15.18;7.03;;;;;;;18.69;100.00;98267.03;5104185;28;20075;-93
2023/06/15 05:59:17;;;;;;;12.00;6.22;;;;;;;18.78;100.00;98284.44;5106684;28;20076;-93
2023/06/15 06:01:45;;;;;;;8.82;5.80;;;;;;;18.87;100.00;98297.31;5108542;28;20069;-94
2023/06/15 06:04:11;;;;;;;9.55;5.97;;;;;;;18.60;100.00;98251.53;5107229;28;20047;-95
2023/06/15 06:06:37;;;;;;;7.55;5.28;;;;;;;18.77;100.00;98255.75;5108684;28;20135;-93
2023/06/15 06:09:03;;;;;;;8.35;5.15;;;;;;;18.79;100.00;98262.78;5106389;28;20043;-94
2023/06/15 06:11:29;;;;;;;8.95;5.45;;;;;;;18.79;100.00;98256.56;5106104;28;20066;-95
2023/06/15 06:13:55;;;;;;;10.15;6.10;;;;;;;18.88;100.00;98255.91;5107689;28;20393;-94
2023/06/15 06:16:21;;;;;;;10.27;5.68;;;;;;;19.06;100.00;98278.00;5105840;28;20043;-94
2023/06/15 06:18:48;;;;;;;9.35;5.50;;;;;;;19.22;100.00;98250.88;5106418;28;20062;-95
2023/06/15 06:21:14;;;;;;;8.63;5.50;;;;;;;19.19;100.00;98246.56;5106262;28;20031;-93
2023/06/15 06:23:40;;;;;;;7.35;5.30;;;;;;;19.56;100.00;98278.09;5106351;28;20044;-95
2023/06/15 06:26:06;;;;;;;9.43;5.35;;;;;;;19.77;100.00;98260.41;5107757;28;20051;-93
2023/06/15 06:28:32;;;;;;;8.95;5.32;;;;;;;19.93;100.00;98257.47;5108446;28;20047;-94
2023/06/15 06:30:58;;;;;;;9.10;5.30;;;;;;;20.27;100.00;98261.19;5108759;28;20040;-96
2023/06/15 06:33:25;;;;;;;9.38;5.18;;;;;;;20.80;100.00;98260.00;5109424;28;20043;-95
2023/06/15 06:35:52;;;;;;;6.85;4.88;;;;;;;21.76;100.00;98256.91;5109899;28;20116;-95
2023/06/15 06:38:18;;;;;;;9.00;5.20;;;;;;;21.52;100.00;98270.56;5108239;28;20078;-94
2023/06/15 06:40:44;;;;;;;9.48;4.88;;;;;;;21.74;100.00;98257.03;5106952;28;20039;-94
2023/06/15 06:43:10;;;;;;;7.65;4.95;;;;;;;22.47;100.00;98253.84;5108856;28;20470;-95
2023/06/15 06:45:37;;;;;;;6.70;4.82;;;;;;;22.15;100.00;98254.63;5107507;28;20040;-94
2023/06/15 06:48:03;;;;;;;8.27;5.45;;;;;;;21.10;100.00;98267.53;5106627;28;20134;-93
2023/06/15 06:50:29;;;;;;;8.63;5.38;;;;;;;20.78;100.00;98261.94;5122590;28;20074;-94
2023/06/15 06:52:57;;;;;;;6.95;4.90;;;;;;;21.02;100.00;98270.00;5108713;28;20047;-95
2023/06/15 06:55:23;;;;;;;10.32;5.65;;;;;;;20.59;100.00;98279.56;5107567;28;20047;-93
2023/06/15 06:57:49;;;;;;;9.23;5.88;;;;;;;20.72;100.00;98253.31;5108799;28;20044;-95
2023/06/15 07:00:16;;;;;;;8.55;5.50;;;;;;;20.78;100.00;98252.00;5106748;28;20043;-94
2023/06/15 07:02:42;;;;;;;8.15;5.13;;;;;;;20.70;100.00;98257.13;5107871;28;20054;-95
2023/06/15 07:05:08;;;;;;;6.97;4.63;;;;;;;20.99;100.00;98259.41;5109288;28;20048;-92
2023/06/15 07:07:34;;;;;;;8.13;5.20;;;;;;;20.98;100.00;98260.41;5107485;28;20051;-95
2023/06/15 07:10:02;;;;;;;9.73;5.15;;;;;;;20.85;100.00;98282.97;5105134;28;20044;-94
2023/06/15 07:12:28;;;;;;;7.43;5.25;;;;;;;20.78;100.00;98260.09;5107233;28;20432;-94
2023/06/15 07:14:55;;;;;;;12.02;5.70;;;;;;;20.79;100.00;98264.50;5108634;28;20035;-94
2023/06/15 07:17:21;;;;;;;7.72;5.40;;;;;;;20.92;100.00;98254.47;5108205;28;20101;-94
2023/06/15 07:19:49;;;;;;;7.95;5.60;;;;;;;20.99;100.00;98254.00;5108660;28;20089;-94
2023/06/15 07:22:17;;;;;;;9.50;5.45;;;;;;;21.18;100.00;98253.41;5108339;28;20043;-93
2023/06/15 07:24:43;;;;;;;7.73;5.50;;;;;;;21.43;100.00;98268.63;5108941;28;20115;-95
2023/06/15 07:27:11;;;;;;;8.75;6.25;;;;;;;21.22;100.00;98292.75;5106225;28;20092;-93
2023/06/15 07:29:37;;;;;;;9.75;6.13;;;;;;;20.71;100.00;98266.97;5104788;28;20043;-94
2023/06/15 07:32:03;;;;;;;8.40;5.72;;;;;;;21.01;100.00;98268.25;5105058;28;20031;-94
2023/06/15 07:34:29;;;;;;;10.02;6.32;;;;;;;20.77;100.00;98279.13;5106221;28;20047;-93
2023/06/15 07:36:55;;;;;;;10.50;5.63;;;;;;;21.48;100.00;98282.63;5106428;28;20469;-93
2023/06/15 07:39:21;;;;;;;9.93;5.82;;;;;;;21.69;100.00;98274.63;5107871;28;20138;-94
2023/06/15 07:41:47;;;;;;;12.48;7.70;;;;;;;21.63;100.00;98267.00;5107324;28;20508;-95
2023/06/15 07:44:15;;;;;;;13.52;8.75;;;;;;;21.35;100.00;98263.75;5108600;28;20047;-93
2023/06/15 07:46:41;;;;;;;14.77;8.63;;;;;;;21.44;100.00;98265.75;5105409;28;20047;-93
2023/06/15 07:49:07;;;;;;;13.30;8.20;;;;;;;21.84;100.00;98262.56;5106561;28;20096;-95
2023/06/15 07:51:34;;;;;;;12.93;7.88;;;;;;;22.15;100.00;98281.72;5108568;28;20048;-94
2023/06/15 07:54:00;;;;;;;12.65;8.88;;;;;;;22.02;100.00;98248.50;5108797;28;20044;-95
2023/06/15 07:56:26;;;;;;;12.90;9.07;;;;;;;22.58;98.20;98250.22;5111624;28;20044;-96
2023/06/15 07:58:52;;;;;;;12.45;9.38;;;;;;;22.67;97.46;98254.84;5109455;28;20073;-94
2023/06/15 08:01:20;;;;;;;15.25;9.43;;;;;;;22.85;96.52;98253.25;5109985;28;20039;-94
2023/06/15 08:03:46;;;;;;;16.93;10.53;;;;;;;22.87;95.13;98280.25;5108852;28;20125;-95
2023/06/15 08:06:12;;;;;;;17.13;11.40;;;;;;;23.38;88.26;98269.47;5109325;28;20047;-95
2023/06/15 08:08:43;;;;;;;17.10;11.38;;;;;;;23.42;87.49;98256.53;5108084;28;20079;-94
2023/06/15 08:11:09;;;;;;;14.70;10.75;;;;;;;23.59;81.96;98252.28;5088740;28;20044;-95
2023/06/15 08:13:38;;;;;;;16.15;11.25;;;;;;;23.32;83.91;98283.59;5089251;28;20051;-95
2023/06/15 08:16:06;;;;;;;18.65;12.43;;;;;;;23.37;83.02;98251.47;5089877;28;20040;-95
2023/06/15 08:18:47;;;;;;;16.60;11.55;;;;;;;23.37;84.62;98245.19;5092018;28;20066;-95
2023/06/15 08:21:17;;;;;;;19.27;12.38;;;;;;;23.74;84.12;98244.63;5109987;28;20037;-96
2023/06/15 08:23:43;;;;;;;18.67;12.88;;;;;;;23.23;83.27;98243.69;5089941;28;20043;-96
2023/06/15 08:26:10;;;;;;;20.20;13.30;;;;;;;23.82;82.77;98257.56;5086446;28;20066;-96
2023/06/15 08:28:35;;;;;;;18.40;12.80;;;;;;;23.86;81.07;98256.28;5087171;28;20095;-94
2023/06/15 08:31:03;;;;;;;19.20;12.10;;;;;;;23.87;79.73;98264.28;5087698;28;20021;-95
2023/06/15 08:33:29;;;;;;;19.13;12.60;;;;;;;24.01;77.28;98273.03;5088590;28;20059;-95
2023/06/15 08:35:57;;;;;;;21.33;14.50;;;;;;;23.44;77.45;98278.91;5093082;28;20050;-93
2023/06/15 08:38:35;;;;;;;17.87;12.80;;;;;;;23.28;82.33;98251.44;5102972;28;20055;-95
2023/06/15 08:41:01;;;;;;;17.92;12.95;;;;;;;23.64;80.31;98255.47;5105193;28;20524;-94
2023/06/15 08:43:30;;;;;;;26.80;14.25;;;;;;;23.28;80.79;98295.69;5103836;28;20113;-92
2023/06/15 08:45:58;;;;;;;18.83;12.55;;;;;;;23.28;80.03;98260.44;5103600;28;20036;-94
2023/06/15 08:48:27;;;;;;;16.83;11.93;;;;;;;24.09;80.24;98276.78;5105737;28;20097;-94
2023/06/15 08:50:54;;;;;;;;;;;;;;;24.15;74.91;98287.09;5106989;28;20130;-95
2023/06/15 08:53:22;;;;;;;19.88;12.95;;;;;;;23.87;77.39;98253.41;5105129;28;20288;-94
2023/06/15 08:55:49;;;;;;;21.45;13.32;;;;;;;23.97;77.47;98261.63;5107713;28;20086;-96
2023/06/15 08:58:15;;;;;;;17.25;12.43;;;;;;;23.51;75.50;98285.56;5106241;28;20044;-92
2023/06/15 09:00:41;;;;;;;19.58;12.75;;;;;;;23.25;80.48;98255.28;5105246;28;20031;-94
2023/06/15 09:03:09;;;;;;;18.08;12.15;;;;;;;23.60;77.12;98254.03;5106889;28;20043;-94
2023/06/15 09:05:36;;;;;;;19.13;12.32;;;;;;;24.01;77.38;98256.75;5112144;28;20044;-94
2023/06/15 09:08:03;;;;;;;16.60;11.85;;;;;;;23.91;75.09;98260.28;5106095;28;20152;-94
2023/06/15 09:10:35;;;;;;;19.40;11.57;;;;;;;24.25;77.73;98259.97;5107775;28;20093;-95
2023/06/15 09:13:01;;;;;;;16.52;11.98;;;;;;;24.40;77.86;98246.81;5105180;28;20043;-95
2023/06/15 09:15:29;;;;;;;17.75;11.65;;;;;;;24.28;76.13;98254.22;5109856;28;20066;-94
2023/06/15 09:17:56;;;;;;;15.50;11.88;;;;;;;24.29;76.53;98261.41;5105841;28;20077;-95
2023/06/15 09:20:24;;;;;;;16.98;11.55;;;;;;;24.10;78.23;98251.34;5107744;28;20040;-95
2023/06/15 09:22:50;;;;;;;21.08;12.98;;;;;;;23.35;76.95;98260.75;5107064;28;20070;-93
2023/06/15 09:25:19;;;;;;;18.83;12.60;;;;;;;22.61;80.95;98269.75;5104817;28;20516;-95
2023/06/15 09:27:56;;;;;;;;;;;;;;;23.41;81.17;98290.06;5104745;28;20107;-95
2023/06/15 09:30:29;;;;;;;21.13;13.40;;;;;;;23.82;78.74;98260.28;5104226;28;20118;-95
2023/06/15 09:32:57;;;;;;;17.85;12.45;;;;;;;24.13;75.73;98271.94;5103986;28;20048;-94
2023/06/15 09:35:27;;;;;;;17.45;12.13;;;;;;;24.19;74.78;98269.53;5108070;28;20054;-95
2023/06/15 09:37:55;;;;;;;17.08;12.10;;;;;;;24.40;74.83;98263.13;5108103;28;20504;-94
2023/06/15 09:40:25;;;;;;;20.05;13.65;;;;;;;23.75;74.93;98287.97;5107773;28;20040;-94
2023/06/15 09:42:55;;;;;;;16.67;12.07;;;;;;;23.22;77.54;98266.38;5109150;28;20490;-94
2023/06/15 09:45:23;;;;;;;16.73;12.70;;;;;;;23.70;76.43;98273.94;5106420;28;20048;-95
2023/06/15 09:47:55;;;;;;;18.52;12.60;;;;;;;23.71;77.14;98277.50;5113558;28;20044;-96
2023/06/15 09:50:26;;;;;;;18.45;12.43;;;;;;;23.33;78.77;98268.16;5125633;28;20040;-95
2023/06/15 09:52:53;;;;;;;19.52;13.88;;;;;;;23.75;79.14;98284.38;5108945;28;20047;-95
2023/06/15 09:55:20;;;;;;;19.30;12.93;;;;;;;24.35;77.50;98262.69;5113198;28;20540;-96
2023/06/15 09:57:47;;;;;;;17.25;12.65;;;;;;;24.28;73.91;98261.53;5116805;28;20044;-96
2023/06/15 10:00:14;;;;;;;19.42;13.32;;;;;;;24.09;74.24;98281.34;5108836;28;20055;-94
2023/06/15 10:02:45;;;;;;;18.05;13.02;;;;;;;24.13;75.32;98264.63;5111269;28;20028;-95
2023/06/15 10:05:17;;;;;;;18.00;13.13;;;;;;;24.16;75.48;98266.25;5110875;28;20499;-95
2023/06/15 10:07:48;;;;;;;18.55;13.75;;;;;;;24.23;72.86;98270.09;5109589;28;20047;-94
2023/06/15 10:10:17;;;;;;;17.40;12.48;;;;;;;24.50;74.08;98263.16;5110126;28;20040;-96
2023/06/15 10:12:49;;;;;;;21.10;13.82;;;;;;;24.49;63.26;98251.44;5108179;28;20059;-93
2023/06/15 10:15:20;;;;;;;20.25;13.27;;;;;;;24.62;63.86;98267.47;5106216;28;20130;-94
2023/06/15 10:17:50;;;;;;;18.67;13.90;;;;;;;24.46;61.36;98250.81;5108660;28;20036;-96
2023/06/15 10:20:17;;;;;;;19.80;13.68;;;;;;;25.00;57.94;98254.84;5111309;28;20040;-95
2023/06/15 10:22:49;;;;;;;18.92;13.55;;;;;;;25.11;58.60;98257.41;5112608;28;20094;-96
2023/06/15 10:25:19;;;;;;;19.17;13.77;;;;;;;24.92;57.22;98252.00;5112018;28;20040;-96
2023/06/15 10:27:56;;;;;;;22.40;14.38;;;;;;;24.90;58.33;98249.41;5115139;28;20088;-94
2023/06/15 10:30:33;;;;;;;21.38;14.15;;;;;;;24.69;59.30;98262.31;5110812;28;20039;-94
2023/06/15 10:33:08;;;;;;;18.48;13.20;;;;;;;25.24;57.70;98256.25;5129389;28;20485;-94
2023/06/15 10:35:42;;;;;;;19.45;13.27;;;;;;;25.44;56.74;98247.06;5107562;28;20050;-94
2023/06/15 10:38:18;;;;;;;17.60;14.13;;;;;;;25.45;56.98;98251.47;5109988;28;20432;-95
2023/06/15 10:40:48;;;;;;;19.40;13.13;;;;;;;24.86;58.62;98264.31;5105783;28;20550;-94
2023/06/15 10:43:17;;;;;;;18.73;13.05;;;;;;;24.48;58.29;98285.03;5105448;28;20040;-94
2023/06/15 10:45:44;;;;;;;23.20;13.80;;;;;;;23.98;61.48;98276.91;5107228;28;20044;-96
2023/06/15 10:48:20;;;;;;;19.08;14.15;;;;;;;24.04;60.81;98256.47;5108938;28;20056;-96
2023/06/15 10:50:48;;;;;;;23.55;13.68;;;;;;;23.97;60.65;98269.75;5110577;28;20048;-95
2023/06/15 10:53:22;;;;;;;21.63;15.90;;;;;;;23.32;62.88;98261.03;5105799;28;20043;-95
2023/06/15 10:55:51;;;;;;;23.15;14.95;;;;;;;23.48;62.72;98288.50;5107239;28;20043;-93
2023/06/15 10:58:17;;;;;;;19.58;13.88;;;;;;;23.31;62.61;98259.28;5107022;28;20084;-94
2023/06/15 11:00:44;;;;;;;20.40;15.40;;;;;;;23.15;63.20;98255.22;5104770;28;20501;-96
2023/06/15 11:03:27;;;;;;;20.45;14.30;;;;;;;24.03;61.46;98276.47;5108054;28;20040;-95
2023/06/15 11:06:06;;;;;;;18.30;14.23;;;;;;;24.54;60.65;98278.19;5103025;28;20048;-94
2023/06/15 11:08:46;;;;;;;18.25;11.55;;;;;;;24.59;58.39;98271.34;5090225;28;20398;-95
2023/06/15 11:11:29;;;;;;;19.90;14.27;;;;;;;25.13;58.63;98279.00;5108352;28;20042;-96
2023/06/15 11:14:21;;;;;;;18.98;13.45;;;;;;;25.60;56.97;98244.53;5110258;28;20043;-96
2023/06/15 11:17:04;;;;;;;18.45;13.18;;;;;;;26.21;54.46;98253.16;5110249;28;20043;-96
2023/06/15 11:19:41;;;;;;;17.38;13.82;;;;;;;26.28;50.19;98232.44;5114163;28;20104;-96
2023/06/15 11:22:08;;;;;;;18.90;13.40;;;;;;;26.57;51.05;98245.88;5107749;28;20050;-96
2023/06/15 11:24:51;;;;;;;17.20;13.25;;;;;;;25.66;52.17;98264.88;5115512;28;20047;-96